Time;durP1;ratioP1;P1;durP2;ratioP2;P2;SDS_P1;SDS_P2;PMS_P1;PMS_P2;Temp;Humidity;BMP_temperature;BMP_pressure;BME280_temperature;BME280_humidity;BME280_pressure;Samples;Min_cycle;Max_cycle;Signal;HPM_P1;HPM_P2
2022/05/04 00:02:55;;;;;;;;;;;;;;;;;;10342710;28;20077;-76
2022/05/04 00:07:55;;;;;;;17.67;15.02;;;;;;;;;;10335909;28;19928;-76
2022/05/04 00:12:56;;;;;;;17.97;16.00;;;;;;;;;;10348043;28;20136;-77
2022/05/04 00:17:57;;;;;;;17.15;15.35;;;;;;;;;;10335116;28;20045;-76
2022/05/04 00:22:57;;;;;;;18.20;15.68;;;;;;;;;;10363372;28;20109;-75
2022/05/04 00:28:00;;;;;;;19.70;16.80;;;;;;;;;;10338398;28;20052;-75
2022/05/04 00:33:00;;;;;;;17.83;14.18;;;;;;;;;;10368330;28;20277;-75
2022/05/04 00:38:01;;;;;;;21.00;16.35;;;;;;;;;;10364156;28;20068;-76
2022/05/04 00:43:02;;;;;;;16.17;14.43;;;;;;;;;;10344741;28;20413;-77
2022/05/04 00:48:08;;;;;;;16.42;14.70;;;;;;;;;;10377756;28;20077;-76
2022/05/04 00:53:10;;;;;;;19.25;16.10;;;;;;;;;;10372245;28;20049;-76
2022/05/04 01:03:31;;;;;;;18.98;16.30;;;;;;;;;;10381017;28;20040;-76
2022/05/04 01:08:33;;;;;;;21.67;18.73;;;;;;;;;;10378886;28;20058;-77
2022/05/04 01:13:34;;;;;;;21.02;18.05;;;;;;;;;;10409322;28;20030;-79
2022/05/04 01:18:35;;;;;;;15.98;14.27;;;;;;;;;;10388034;28;20052;-79
2022/05/04 01:23:35;;;;;;;13.97;12.47;;;;;;;;;;10382966;28;20022;-75
2022/05/04 01:28:36;;;;;;;16.85;15.07;;;;;;;;;;10402134;28;20261;-76
2022/05/04 01:33:37;;;;;;;20.02;17.02;;;;;;;;;;10390612;28;20045;-76
2022/05/04 01:38:38;;;;;;;18.83;16.83;;;;;;;;;;10369009;28;20046;-76
2022/05/04 01:43:38;;;;;;;19.17;17.02;;;;;;;;;;10334131;28;20220;-76
2022/05/04 01:48:39;;;;;;;19.20;15.90;;;;;;;;;;10364943;28;20109;-75
2022/05/04 01:53:41;;;;;;;18.58;16.60;;;;;;;;;;10369356;28;20042;-75
2022/05/04 01:58:42;;;;;;;20.27;16.55;;;;;;;;;;10350734;28;20415;-75
2022/05/04 02:03:42;;;;;;;20.80;17.45;;;;;;;;;;10340343;28;20054;-77
2022/05/04 02:08:43;;;;;;;21.00;16.92;;;;;;;;;;10353732;28;20045;-76
2022/05/04 02:13:43;;;;;;;20.15;16.77;;;;;;;;;;10335915;28;20610;-76
2022/05/04 02:18:43;;;;;;;23.17;18.70;;;;;;;;;;10351649;28;20516;-76
2022/05/04 02:23:44;;;;;;;21.33;18.37;;;;;;;;;;10376004;28;20813;-76
2022/05/04 02:28:45;;;;;;;20.92;18.25;;;;;;;;;;10364673;28;20046;-77
2022/05/04 02:33:47;;;;;;;20.40;16.58;;;;;;;;;;10362877;28;20054;-77
2022/05/04 02:38:48;;;;;;;19.48;17.38;;;;;;;;;;10349465;28;20430;-76
2022/05/04 02:43:48;;;;;;;19.47;17.30;;;;;;;;;;10353309;28;20044;-75
2022/05/04 02:48:49;;;;;;;19.17;15.98;;;;;;;;;;10366180;28;20288;-76
2022/05/04 02:53:49;;;;;;;19.17;17.17;;;;;;;;;;10364935;28;20129;-76
2022/05/04 02:58:53;;;;;;;17.83;14.85;;;;;;;;;;10349169;28;20054;-78
2022/05/04 03:03:54;;;;;;;17.55;14.05;;;;;;;;;;10365413;28;20052;-76
2022/05/04 03:08:54;;;;;;;18.80;16.15;;;;;;;;;;10354104;28;20614;-77
2022/05/04 03:13:54;;;;;;;20.80;16.08;;;;;;;;;;10347144;28;20136;-77
2022/05/04 03:18:55;;;;;;;21.80;16.57;;;;;;;;;;10353660;28;20053;-76
2022/05/04 03:23:55;;;;;;;19.70;16.07;;;;;;;;;;10348305;28;20127;-77
2022/05/04 03:28:57;;;;;;;20.45;16.88;;;;;;;;;;10342571;28;20277;-76
2022/05/04 03:33:57;;;;;;;18.80;15.50;;;;;;;;;;10326702;28;20049;-77
2022/05/04 03:39:00;;;;;;;18.77;16.77;;;;;;;;;;10349752;28;20054;-75
2022/05/04 03:44:00;;;;;;;19.43;15.10;;;;;;;;;;10370044;28;20058;-77
2022/05/04 03:49:08;;;;;;;20.75;17.00;;;;;;;;;;10368101;28;20041;-77
2022/05/04 03:54:08;;;;;;;18.17;15.38;;;;;;;;;;10369139;28;20060;-76
2022/05/04 03:59:09;;;;;;;22.48;16.85;;;;;;;;;;10368923;28;20049;-77
2022/05/04 04:04:11;;;;;;;18.95;16.75;;;;;;;;;;10346639;28;20042;-77
2022/05/04 04:09:12;;;;;;;18.90;16.00;;;;;;;;;;10370447;28;20046;-76
2022/05/04 04:14:13;;;;;;;17.87;15.93;;;;;;;;;;10360279;28;20466;-75
2022/05/04 04:19:14;;;;;;;19.50;15.93;;;;;;;;;;10357168;28;20080;-76
2022/05/04 04:24:14;;;;;;;19.93;16.50;;;;;;;;;;10395102;28;20049;-76
2022/05/04 04:29:14;;;;;;;20.15;17.25;;;;;;;;;;10408642;28;20269;-76
2022/05/04 04:34:15;;;;;;;20.33;16.10;;;;;;;;;;10410385;28;20038;-77
2022/05/04 04:39:15;;;;;;;21.87;16.17;;;;;;;;;;10361163;28;20104;-77
2022/05/04 04:44:16;;;;;;;21.08;16.58;;;;;;;;;;10332875;28;20284;-75
2022/05/04 04:49:16;;;;;;;17.57;14.33;;;;;;;;;;10366652;28;20813;-76
2022/05/04 04:54:16;;;;;;;18.80;16.53;;;;;;;;;;10368726;28;20046;-76
2022/05/04 04:59:17;;;;;;;20.45;16.92;;;;;;;;;;10348225;28;20184;-76
2022/05/04 05:04:17;;;;;;;19.85;17.23;;;;;;;;;;10361262;28;20184;-76
2022/05/04 05:09:19;;;;;;;20.85;16.80;;;;;;;;;;10360910;28;20469;-76
2022/05/04 05:19:39;;;;;;;22.83;18.60;;;;;;;;;;10382333;28;20579;-77
2022/05/04 05:24:39;;;;;;;19.60;16.27;;;;;;;;;;10382485;28;20062;-76
2022/05/04 05:29:40;;;;;;;21.13;17.13;;;;;;;;;;10356018;28;20532;-78
2022/05/04 05:34:42;;;;;;;20.50;17.27;;;;;;;;;;10384303;28;20116;-77
2022/05/04 05:39:42;;;;;;;19.00;15.95;;;;;;;;;;10396449;28;20070;-77
2022/05/04 05:44:43;;;;;;;19.03;17.00;;;;;;;;;;10386767;28;20049;-76
2022/05/04 05:49:43;;;;;;;18.50;16.60;;;;;;;;;;10369151;28;20293;-76
2022/05/04 05:54:44;;;;;;;18.50;16.27;;;;;;;;;;10328659;28;20045;-76
2022/05/04 05:59:45;;;;;;;20.67;16.70;;;;;;;;;;10353626;28;20058;-75
2022/05/04 06:04:45;;;;;;;20.42;17.33;;;;;;;;;;10372683;28;20046;-76
2022/05/04 06:09:45;;;;;;;23.08;18.05;;;;;;;;;;10368706;28;20068;-76
2022/05/04 06:14:46;;;;;;;19.35;16.38;;;;;;;;;;10369368;28;20076;-76
2022/05/04 06:19:47;;;;;;;20.63;17.33;;;;;;;;;;10364429;28;20236;-76
2022/05/04 06:24:47;;;;;;;20.25;17.75;;;;;;;;;;10369460;28;20049;-76
2022/05/04 06:35:07;;;;;;;17.98;16.08;;;;;;;;;;10369844;28;20034;-73
2022/05/04 06:40:08;;;;;;;20.40;16.23;;;;;;;;;;10358275;28;20180;-75
2022/05/04 06:45:09;;;;;;;21.38;17.60;;;;;;;;;;10358617;28;20270;-76
2022/05/04 06:50:10;;;;;;;18.80;15.80;;;;;;;;;;10362447;28;20045;-76
2022/05/04 06:55:10;;;;;;;21.00;17.42;;;;;;;;;;10364480;28;20100;-75
2022/05/04 07:00:11;;;;;;;16.00;14.30;;;;;;;;;;10365627;28;20092;-79
2022/05/04 07:05:11;;;;;;;20.17;15.80;;;;;;;;;;10365914;28;20477;-74
2022/05/04 07:10:11;;;;;;;18.10;16.20;;;;;;;;;;10364098;28;20492;-77
2022/05/04 07:15:12;;;;;;;16.23;14.13;;;;;;;;;;10366764;28;20492;-75
2022/05/04 07:20:12;;;;;;;16.80;15.10;;;;;;;;;;10384419;28;20121;-75
2022/05/04 07:25:13;;;;;;;18.42;16.02;;;;;;;;;;10367815;28;20288;-75
2022/05/04 07:30:13;;;;;;;18.58;16.67;;;;;;;;;;10357976;28;20045;-75
2022/05/04 07:35:14;;;;;;;14.30;12.82;;;;;;;;;;10404564;28;20053;-75
2022/05/04 07:45:33;;;;;;;17.02;14.73;;;;;;;;;;10417799;28;20072;-74
2022/05/04 07:50:33;;;;;;;16.05;14.35;;;;;;;;;;10374353;28;20377;-73
2022/05/04 07:55:36;;;;;;;17.70;14.90;;;;;;;;;;10363821;28;20033;-74
2022/05/04 08:05:56;;;;;;;17.90;14.27;;;;;;;;;;10339011;28;20038;-75
2022/05/04 08:10:57;;;;;;;14.90;13.30;;;;;;;;;;10341799;28;20079;-75
2022/05/04 08:15:57;;;;;;;15.02;13.10;;;;;;;;;;10343254;28;20120;-75
2022/05/04 08:20:58;;;;;;;16.53;14.00;;;;;;;;;;10355992;28;20159;-74
2022/05/04 08:25:58;;;;;;;15.93;14.13;;;;;;;;;;10344858;28;20048;-75
2022/05/04 08:31:00;;;;;;;15.23;13.63;;;;;;;;;;10361271;28;20045;-75
2022/05/04 08:36:01;;;;;;;15.13;13.20;;;;;;;;;;10351874;28;20745;-76
2022/05/04 08:41:04;;;;;;;14.23;12.73;;;;;;;;;;10353702;28;20053;-77
2022/05/04 08:46:05;;;;;;;14.73;12.02;;;;;;;;;;10353099;28;20121;-76
2022/05/04 08:51:05;;;;;;;15.13;12.18;;;;;;;;;;10381390;28;20108;-75
2022/05/04 08:56:06;;;;;;;14.93;12.70;;;;;;;;;;10361871;28;20042;-76
2022/05/04 09:01:07;;;;;;;14.13;12.73;;;;;;;;;;10366849;28;20065;-76
2022/05/04 09:06:08;;;;;;;13.15;11.88;;;;;;;;;;10362704;28;20545;-76
2022/05/04 09:11:15;;;;;;;11.48;10.38;;;;;;;;;;10357940;28;20154;-75
2022/05/04 09:16:32;;;;;;;13.10;11.27;;;;;;;;;;10340602;28;20515;-76
2022/05/04 09:21:33;;;;;;;10.82;9.75;;;;;;;;;;10364429;28;20089;-77
2022/05/04 09:26:41;;;;;;;12.40;11.13;;;;;;;;;;10348899;28;20523;-76
2022/05/04 09:31:46;;;;;;;13.23;10.98;;;;;;;;;;10374987;28;20045;-76
2022/05/04 09:47:36;;;;;;;15.32;13.07;;;;;;;;;;10360875;28;20084;-77
2022/05/04 09:52:45;;;;;;;10.00;9.00;;;;;;;;;;10342072;28;20077;-75
2022/05/04 09:57:47;;;;;;;11.30;10.10;;;;;;;;;;10373208;28;20107;-76
2022/05/04 10:02:48;;;;;;;17.48;15.70;;;;;;;;;;10342124;28;20049;-76
2022/05/04 10:07:50;;;;;;;10.75;9.75;;;;;;;;;;10375602;28;20052;-76
2022/05/04 10:12:52;;;;;;;24.27;19.75;;;;;;;;;;10346948;28;20061;-75
2022/05/04 10:17:52;;;;;;;10.02;9.05;;;;;;;;;;10360404;28;20037;-76
2022/05/04 10:22:53;;;;;;;7.77;7.07;;;;;;;;;;10353593;28;20058;-74
2022/05/04 10:28:04;;;;;;;7.00;6.40;;;;;;;;;;10339973;28;20364;-75
2022/05/04 10:33:05;;;;;;;6.18;5.22;;;;;;;;;;10376857;28;20049;-76
2022/05/04 10:38:09;;;;;;;5.27;4.77;;;;;;;;;;10386923;28;20050;-77
2022/05/04 10:43:12;;;;;;;6.72;6.15;;;;;;;;;;10392014;28;20053;-76
2022/05/04 10:48:15;;;;;;;8.63;7.72;;;;;;;;;;10400522;28;20057;-77
2022/05/04 10:53:19;;;;;;;6.95;6.25;;;;;;;;;;10371886;28;20038;-76
2022/05/04 10:58:29;;;;;;;6.85;6.15;;;;;;;;;;10368919;28;20386;-76
2022/05/04 11:03:33;;;;;;;7.90;6.82;;;;;;;;;;10371719;28;20061;-76
2022/05/04 11:08:36;;;;;;;7.95;7.25;;;;;;;;;;10339254;28;20505;-74
2022/05/04 11:13:36;;;;;;;7.57;6.88;;;;;;;;;;10325022;28;20115;-75
2022/05/04 11:18:42;;;;;;;7.22;6.38;;;;;;;;;;10367432;28;20508;-76
2022/05/04 11:23:47;;;;;;;7.75;6.93;;;;;;;;;;10367525;28;20203;-76
2022/05/04 11:28:49;;;;;;;7.57;6.72;;;;;;;;;;10352974;28;20053;-77
2022/05/04 11:33:50;;;;;;;7.40;6.40;;;;;;;;;;10338296;28;20050;-73
2022/05/04 11:38:50;;;;;;;6.57;5.85;;;;;;;;;;10366500;28;20072;-75
2022/05/04 11:43:51;;;;;;;7.13;6.45;;;;;;;;;;10353026;28;20481;-74
2022/05/04 11:48:55;;;;;;;8.63;7.77;;;;;;;;;;10345328;28;20046;-73
2022/05/04 11:53:57;;;;;;;8.13;6.80;;;;;;;;;;10355305;28;20360;-77
2022/05/04 11:58:59;;;;;;;7.35;6.65;;;;;;;;;;10354359;28;20073;-74
2022/05/04 12:04:02;;;;;;;7.93;6.97;;;;;;;;;;10332595;28;20038;-74
2022/05/04 12:09:05;;;;;;;7.55;6.15;;;;;;;;;;10364172;28;20077;-75
2022/05/04 12:14:07;;;;;;;8.65;7.70;;;;;;;;;;10374240;28;20054;-74
2022/05/04 12:19:07;;;;;;;7.97;7.17;;;;;;;;;;10364321;28;20103;-75
2022/05/04 12:24:08;;;;;;;21.08;8.80;;;;;;;;;;10358639;28;20073;-76
2022/05/04 12:34:30;;;;;;;10.73;9.60;;;;;;;;;;10355252;28;20046;-75
2022/05/04 12:39:30;;;;;;;16.05;11.82;;;;;;;;;;10352491;28;20060;-75
2022/05/04 12:44:32;;;;;;;12.47;11.17;;;;;;;;;;10356079;28;20045;-74
2022/05/04 12:49:33;;;;;;;13.20;10.33;;;;;;;;;;10375533;28;20284;-76
2022/05/04 12:54:33;;;;;;;6.77;6.07;;;;;;;;;;10376579;28;20044;-74
2022/05/04 12:59:33;;;;;;;8.90;7.07;;;;;;;;;;10372560;28;20058;-75
2022/05/04 13:04:34;;;;;;;9.97;8.93;;;;;;;;;;10374251;28;20057;-75
2022/05/04 13:09:35;;;;;;;10.40;8.33;;;;;;;;;;10368940;28;20050;-76
2022/05/04 13:14:37;;;;;;;10.85;8.82;;;;;;;;;;10354639;28;20048;-75
2022/05/04 13:19:38;;;;;;;9.63;8.80;;;;;;;;;;10370020;28;20050;-75
2022/05/04 13:24:38;;;;;;;10.20;8.70;;;;;;;;;;10355738;28;20045;-75
2022/05/04 13:29:41;;;;;;;8.73;7.57;;;;;;;;;;10354540;28;20649;-74
2022/05/04 13:34:41;;;;;;;9.20;8.07;;;;;;;;;;10371733;28;20456;-76
2022/05/04 13:39:41;;;;;;;9.30;8.27;;;;;;;;;;10356731;28;20061;-75
2022/05/04 13:44:42;;;;;;;8.60;7.80;;;;;;;;;;10368866;28;20042;-73
2022/05/04 13:49:42;;;;;;;10.47;7.37;;;;;;;;;;10373221;28;20050;-76
2022/05/04 13:54:42;;;;;;;9.57;7.40;;;;;;;;;;10387149;28;20140;-73
2022/05/04 13:59:43;;;;;;;10.37;6.87;;;;;;;;;;10392370;28;20053;-75
2022/05/04 14:04:43;;;;;;;39.83;11.77;;;;;;;;;;10410207;28;20042;-74
2022/05/04 14:09:43;;;;;;;22.33;9.83;;;;;;;;;;10377113;28;20137;-73
2022/05/04 14:15:02;;;;;;;10.25;9.07;;;;;;;;;;10363849;28;20493;-74
2022/05/04 14:20:02;;;;;;;12.80;8.75;;;;;;;;;;10365914;28;20045;-75
2022/05/04 14:25:03;;;;;;;11.00;9.88;;;;;;;;;;10364160;28;20070;-74
2022/05/04 14:30:04;;;;;;;9.52;8.63;;;;;;;;;;10372354;28;20057;-75
2022/05/04 14:35:06;;;;;;;11.52;10.10;;;;;;;;;;10364869;28;20042;-74
2022/05/04 14:40:06;;;;;;;11.55;10.18;;;;;;;;;;10349288;28;20050;-74
2022/05/04 14:45:07;;;;;;;7.72;6.80;;;;;;;;;;10367482;28;20034;-76
2022/05/04 14:50:07;;;;;;;6.30;5.80;;;;;;;;;;10354824;28;20523;-76
2022/05/04 14:55:08;;;;;;;6.85;6.15;;;;;;;;;;10375264;28;20292;-76
2022/05/04 15:00:08;;;;;;;7.78;6.35;;;;;;;;;;10353699;28;20416;-75
2022/05/04 15:05:09;;;;;;;8.48;7.25;;;;;;;;;;10350026;28;20043;-76
2022/05/04 15:10:10;;;;;;;5.47;4.97;;;;;;;;;;10352387;28;20070;-75
2022/05/04 15:15:13;;;;;;;8.02;5.40;;;;;;;;;;10368979;28;20311;-76
2022/05/04 15:20:13;;;;;;;6.72;5.80;;;;;;;;;;10330675;28;20058;-76
2022/05/04 15:25:13;;;;;;;6.38;5.25;;;;;;;;;;10363986;28;20072;-75
2022/05/04 15:30:14;;;;;;;7.77;6.17;;;;;;;;;;10355710;28;20117;-76
2022/05/04 15:35:14;;;;;;;6.17;4.93;;;;;;;;;;10386075;28;20149;-76
2022/05/04 15:40:15;;;;;;;5.50;4.90;;;;;;;;;;10367603;28;20073;-75
2022/05/04 15:45:15;;;;;;;6.32;5.05;;;;;;;;;;10367814;28;20048;-75
2022/05/04 15:50:15;;;;;;;6.97;4.80;;;;;;;;;;10343216;28;20520;-75
2022/05/04 15:55:16;;;;;;;7.03;6.30;;;;;;;;;;10355675;28;20364;-75
2022/05/04 16:00:16;;;;;;;6.03;5.43;;;;;;;;;;10363523;28;20060;-77
2022/05/04 16:05:17;;;;;;;7.03;6.32;;;;;;;;;;10347387;28;20657;-75
2022/05/04 16:10:18;;;;;;;6.28;5.68;;;;;;;;;;10365222;28;20107;-75
2022/05/04 16:15:18;;;;;;;7.82;7.13;;;;;;;;;;10360295;28;20046;-77
2022/05/04 16:25:38;;;;;;;9.35;6.55;;;;;;;;;;10357955;28;20811;-75
2022/05/04 16:30:38;;;;;;;8.05;7.25;;;;;;;;;;10348694;28;20164;-78
2022/05/04 16:35:39;;;;;;;8.02;6.25;;;;;;;;;;10321901;28;20046;-77
2022/05/04 16:40:39;;;;;;;6.50;5.70;;;;;;;;;;10348799;28;20786;-76
2022/05/04 16:45:39;;;;;;;6.83;5.67;;;;;;;;;;10366170;28;20129;-77
2022/05/04 16:50:43;;;;;;;8.85;5.15;;;;;;;;;;10368483;28;20356;-76
2022/05/04 16:55:43;;;;;;;6.22;4.25;;;;;;;;;;10354748;28;20120;-77
2022/05/04 17:00:44;;;;;;;4.93;4.43;;;;;;;;;;10380054;28;20098;-77
2022/05/04 17:05:44;;;;;;;4.50;4.10;;;;;;;;;;10409676;28;20082;-77
2022/05/04 17:10:45;;;;;;;4.40;4.00;;;;;;;;;;10389351;28;20042;-75
2022/05/04 17:15:46;;;;;;;5.55;4.97;;;;;;;;;;10391122;28;20050;-77
2022/05/04 17:20:46;;;;;;;4.87;4.33;;;;;;;;;;10357077;28;20236;-76
2022/05/04 17:25:47;;;;;;;5.30;4.80;;;;;;;;;;10357934;28;20285;-78
2022/05/04 17:30:47;;;;;;;6.10;5.20;;;;;;;;;;10324076;28;20707;-78
2022/05/04 17:41:07;;;;;;;5.80;5.03;;;;;;;;;;10371517;28;20285;-76
2022/05/04 17:46:08;;;;;;;5.50;5.00;;;;;;;;;;10371755;28;20405;-78
2022/05/04 17:51:08;;;;;;;6.30;5.30;;;;;;;;;;10368515;28;20050;-78
2022/05/04 17:56:09;;;;;;;6.78;5.80;;;;;;;;;;10372678;28;20062;-78
2022/05/04 18:01:09;;;;;;;6.87;5.23;;;;;;;;;;10360209;28;20050;-77
2022/05/04 18:06:12;;;;;;;7.50;5.13;;;;;;;;;;10378661;28;20277;-79
2022/05/04 18:11:14;;;;;;;;;;;;;;;;;;10319798;28;20827;-74
2022/05/04 18:16:14;;;;;;;7.53;6.80;;;;;;;;;;10377347;28;19921;-77
2022/05/04 18:21:15;;;;;;;6.33;5.53;;;;;;;;;;10376106;28;20064;-77
2022/05/04 18:26:16;;;;;;;6.95;5.88;;;;;;;;;;10368532;28;20053;-78
2022/05/04 18:31:16;;;;;;;7.10;6.40;;;;;;;;;;10381078;28;20042;-76
2022/05/04 18:36:29;;;;;;;7.77;6.97;;;;;;;;;;10332788;28;20080;-76
2022/05/04 18:41:30;;;;;;;8.15;6.65;;;;;;;;;;10380982;28;20281;-77
2022/05/04 18:46:30;;;;;;;7.05;6.22;;;;;;;;;;10370689;28;20053;-77
2022/05/04 18:51:32;;;;;;;8.10;7.35;;;;;;;;;;10368150;28;20041;-76
2022/05/04 18:56:35;;;;;;;7.88;6.90;;;;;;;;;;10351945;28;20037;-78
2022/05/04 19:01:36;;;;;;;9.80;7.25;;;;;;;;;;10375976;28;20058;-80
2022/05/04 19:06:38;;;;;;;7.63;6.80;;;;;;;;;;10378517;28;20588;-78
2022/05/04 19:11:40;;;;;;;8.45;7.35;;;;;;;;;;10332156;28;20054;-76
2022/05/04 19:16:44;;;;;;;9.60;8.60;;;;;;;;;;10370503;28;20125;-81
2022/05/04 19:21:44;;;;;;;10.13;8.30;;;;;;;;;;10360587;28;20472;-78
2022/05/04 19:26:45;;;;;;;8.00;7.20;;;;;;;;;;10346252;28;20126;-78
2022/05/04 19:31:45;;;;;;;10.45;9.25;;;;;;;;;;10353564;28;20273;-80
2022/05/04 19:36:46;;;;;;;10.07;8.40;;;;;;;;;;10355415;28;20109;-79
2022/05/04 19:41:48;;;;;;;10.23;8.45;;;;;;;;;;10371693;28;20308;-78
2022/05/04 19:46:49;;;;;;;11.70;9.50;;;;;;;;;;10365425;28;20131;-78
2022/05/04 19:51:49;;;;;;;10.30;9.20;;;;;;;;;;10357007;28;20092;-80
2022/05/04 19:56:49;;;;;;;9.93;8.88;;;;;;;;;;10375287;28;20419;-79
2022/05/04 20:01:50;;;;;;;8.93;7.67;;;;;;;;;;10372584;28;20088;-78
2022/05/04 20:06:50;;;;;;;10.40;9.10;;;;;;;;;;10363911;28;20537;-78
2022/05/04 20:11:51;;;;;;;10.85;9.57;;;;;;;;;;10364778;28;20052;-78
2022/05/04 20:16:51;;;;;;;9.27;7.88;;;;;;;;;;10389799;28;20052;-77
2022/05/04 20:21:55;;;;;;;10.05;8.93;;;;;;;;;;10393025;28;20038;-79
2022/05/04 20:26:57;;;;;;;9.98;8.98;;;;;;;;;;10388143;28;20034;-79
2022/05/04 20:31:57;;;;;;;11.32;10.13;;;;;;;;;;10357037;28;20050;-77
2022/05/04 20:36:57;;;;;;;11.70;9.27;;;;;;;;;;10357902;28;20049;-77
2022/05/04 20:41:59;;;;;;;12.02;10.55;;;;;;;;;;10365590;28;20056;-77
2022/05/04 20:46:59;;;;;;;12.70;11.20;;;;;;;;;;10353080;28;20125;-77
2022/05/04 20:52:13;;;;;;;14.60;12.10;;;;;;;;;;10360611;28;20045;-76
2022/05/04 20:57:14;;;;;;;14.15;12.32;;;;;;;;;;10374453;28;20065;-79
2022/05/04 21:02:14;;;;;;;14.88;12.52;;;;;;;;;;10375349;28;20072;-77
2022/05/04 21:07:14;;;;;;;19.63;13.80;;;;;;;;;;10375632;28;20141;-76
2022/05/04 21:12:15;;;;;;;18.33;14.70;;;;;;;;;;10353918;28;20137;-77
2022/05/04 21:17:15;;;;;;;20.33;14.63;;;;;;;;;;10363029;28;20288;-77
2022/05/04 21:22:16;;;;;;;21.23;16.35;;;;;;;;;;10359099;28;20167;-77
2022/05/04 21:27:17;;;;;;;29.30;19.07;;;;;;;;;;10330763;28;20137;-79
2022/05/04 21:32:20;;;;;;;29.98;20.55;;;;;;;;;;10373855;28;20449;-77
2022/05/04 21:37:20;;;;;;;26.73;18.60;;;;;;;;;;10359077;28;20042;-79
2022/05/04 21:42:21;;;;;;;26.08;20.17;;;;;;;;;;10366515;28;20088;-78
2022/05/04 21:47:22;;;;;;;22.45;15.45;;;;;;;;;;10374151;28;20069;-77
2022/05/04 21:52:22;;;;;;;23.85;16.83;;;;;;;;;;10366892;28;20046;-79
2022/05/04 21:57:23;;;;;;;22.67;15.90;;;;;;;;;;10364087;28;20050;-78
2022/05/04 22:02:25;;;;;;;19.90;14.20;;;;;;;;;;10352657;28;20049;-78
2022/05/04 22:07:26;;;;;;;15.85;13.80;;;;;;;;;;10371073;28;20060;-78
2022/05/04 22:17:45;;;;;;;19.23;14.43;;;;;;;;;;10369550;28;20862;-78
2022/05/04 22:22:46;;;;;;;16.83;14.00;;;;;;;;;;10346117;28;20061;-76
2022/05/04 22:27:47;;;;;;;17.50;13.73;;;;;;;;;;10370944;28;20042;-76
2022/05/04 22:32:47;;;;;;;16.23;12.13;;;;;;;;;;10369955;28;20041;-77
2022/05/04 22:37:48;;;;;;;15.55;13.10;;;;;;;;;;10352414;28;20755;-77
2022/05/04 22:42:48;;;;;;;16.80;13.30;;;;;;;;;;10368533;28;20444;-77
2022/05/04 22:47:48;;;;;;;16.00;13.30;;;;;;;;;;10369267;28;20038;-76
2022/05/04 22:52:49;;;;;;;17.75;13.52;;;;;;;;;;10351409;28;20081;-77
2022/05/04 22:57:49;;;;;;;15.23;12.20;;;;;;;;;;10352049;28;20149;-76
2022/05/04 23:02:50;;;;;;;17.00;14.27;;;;;;;;;;10369959;28;20741;-78
2022/05/04 23:07:50;;;;;;;16.23;12.53;;;;;;;;;;10368868;28;20046;-77
2022/05/04 23:12:51;;;;;;;15.10;11.82;;;;;;;;;;10368728;28;20284;-76
2022/05/04 23:17:51;;;;;;;16.57;12.63;;;;;;;;;;10353528;28;20434;-77
2022/05/04 23:22:53;;;;;;;17.13;13.63;;;;;;;;;;10369203;28;20060;-77
2022/05/04 23:27:53;;;;;;;16.65;13.05;;;;;;;;;;10387564;28;20394;-76
2022/05/04 23:32:54;;;;;;;15.77;13.37;;;;;;;;;;10393294;28;20046;-78
2022/05/04 23:37:54;;;;;;;17.27;13.13;;;;;;;;;;10385700;28;20065;-77
2022/05/04 23:42:55;;;;;;;16.50;13.63;;;;;;;;;;10368603;28;20046;-76
2022/05/04 23:47:55;;;;;;;17.50;12.50;;;;;;;;;;10327957;28;20137;-76
2022/05/04 23:52:56;;;;;;;19.97;14.93;;;;;;;;;;10366411;28;20129;-76
2022/05/04 23:57:56;;;;;;;19.48;15.60;;;;;;;;;;10365790;28;20552;-76
